Time;durP1;ratioP1;P1;durP2;ratioP2;P2;SDS_P1;SDS_P2;PMS_P1;PMS_P2;Temp;Humidity;BMP_temperature;BMP_pressure;BME280_temperature;BME280_humidity;BME280_pressure;Samples;Min_cycle;Max_cycle;Signal;HPM_P1;HPM_P2
2023/07/01 00:01:10;;;;;;;2.40;2.20;;;18.60;67.60;;;20.17;48.44;97218.25;5031433;28;20041;-54
2023/07/01 00:03:38;;;;;;;3.33;2.40;;;18.60;68.00;;;20.18;48.57;97216.38;5031911;28;20049;-53
2023/07/01 00:06:06;;;;;;;2.50;2.05;;;18.60;67.90;;;20.19;48.75;97213.44;5032310;28;20052;-55
2023/07/01 00:08:33;;;;;;;4.43;2.10;;;18.60;67.60;;;20.17;48.35;97218.25;5031897;28;20390;-54
2023/07/01 00:11:01;;;;;;;3.00;2.35;;;18.60;67.30;;;20.16;48.58;97213.91;5032178;28;20160;-55
2023/07/01 00:13:29;;;;;;;3.95;1.80;;;18.60;67.40;;;20.15;48.30;97214.97;5032213;28;20053;-54
2023/07/01 00:15:57;;;;;;;2.65;2.33;;;18.50;67.50;;;20.15;48.48;97211.44;5031761;28;20041;-55
2023/07/01 00:18:25;;;;;;;3.10;2.78;;;18.50;67.30;;;20.17;48.17;97209.34;5032824;28;20049;-54
2023/07/01 00:20:54;;;;;;;3.30;2.00;;;18.50;66.90;;;20.16;48.13;97210.38;5031906;28;20052;-55
2023/07/01 00:23:21;;;;;;;3.92;3.03;;;18.50;66.80;;;20.11;48.02;97208.38;5031726;28;20048;-55
2023/07/01 00:25:49;;;;;;;3.17;2.20;;;18.40;67.10;;;20.06;47.93;97202.84;5031947;28;20394;-55
2023/07/01 00:28:17;;;;;;;4.57;2.20;;;18.40;67.20;;;20.02;48.17;97205.19;5031922;28;20048;-55
2023/07/01 00:30:44;;;;;;;5.65;2.08;;;18.30;67.20;;;20.00;48.05;97203.78;5030297;28;20053;-56
2023/07/01 00:33:12;;;;;;;2.60;1.95;;;18.30;67.30;;;19.95;48.27;97199.06;5031115;28;20072;-55
2023/07/01 00:35:40;;;;;;;3.95;2.40;;;18.20;67.20;;;19.92;48.01;97199.53;5031748;28;20044;-54
2023/07/01 00:38:08;;;;;;;2.42;1.77;;;18.20;66.80;;;19.90;48.00;97198.94;5029898;28;20053;-54
2023/07/01 00:40:35;;;;;;;4.38;2.28;;;18.10;67.40;;;19.88;48.28;97197.53;5029616;28;20488;-55
2023/07/01 00:43:03;;;;;;;4.15;2.67;;;18.10;67.20;;;19.84;48.04;97203.38;5031029;28;20454;-53
2023/07/01 00:45:31;;;;;;;3.95;2.80;;;18.10;67.20;;;19.79;48.27;97192.47;5030569;28;20050;-42
2023/07/01 00:47:58;;;;;;;2.83;2.05;;;18.00;67.30;;;19.75;48.18;97193.97;5030000;28;20072;-41
2023/07/01 00:50:26;;;;;;;4.85;2.25;;;18.10;67.50;;;19.70;48.32;97185.72;5029975;28;20532;-41
2023/07/01 00:52:54;;;;;;;2.47;2.08;;;18.00;67.60;;;19.63;48.48;97185.81;5030119;28;20045;-41
2023/07/01 00:55:22;;;;;;;4.72;2.35;;;17.80;68.00;;;19.58;48.44;97188.38;5030023;28;20053;-40
2023/07/01 00:57:51;;;;;;;3.35;2.67;;;17.80;68.10;;;19.58;48.55;97188.38;5031434;28;20057;-39
2023/07/01 01:00:19;;;;;;;3.10;2.33;;;17.90;68.00;;;19.58;48.41;97191.09;5030486;28;20053;-40
2023/07/01 01:03:14;;;;;;;2.97;2.13;;;17.80;67.70;;;19.56;48.54;97187.78;5030445;28;20053;-39
2023/07/01 01:05:55;;;;;;;2.90;2.30;;;17.80;67.70;;;19.53;48.47;97185.53;5025021;28;20048;-41
2023/07/01 01:08:46;;;;;;;3.80;2.40;;;17.80;67.60;;;19.52;48.56;97191.16;5024039;28;20053;-40
2023/07/01 01:11:16;;;;;;;2.40;2.13;;;17.70;67.70;;;19.46;48.54;97190.19;5022663;28;20046;-40
2023/07/01 01:13:44;;;;;;;3.15;2.10;;;17.70;67.70;;;19.43;48.41;97183.41;5021161;28;20076;-40
2023/07/01 01:16:13;;;;;;;4.65;2.28;;;17.70;67.40;;;19.39;48.40;97178.69;5013571;28;20045;-41
2023/07/01 01:18:43;;;;;;;3.78;2.47;;;17.70;67.40;;;19.37;48.31;97180.81;5029606;28;20436;-41
2023/07/01 01:21:13;;;;;;;2.97;2.55;;;17.70;67.30;;;19.37;48.46;97178.09;5013609;28;20504;-40
2023/07/01 01:23:50;;;;;;;3.80;2.45;;;17.70;66.70;;;19.35;48.63;97186.41;5029776;28;20044;-40
2023/07/01 01:26:20;;;;;;;3.53;2.30;;;17.70;67.00;;;19.32;48.46;97183.34;5030054;28;20048;-40
2023/07/01 01:28:48;;;;;;;4.55;2.33;;;17.60;66.70;;;19.31;48.44;97184.38;5030804;28;20121;-40
2023/07/01 01:31:16;;;;;;;3.55;2.28;;;17.60;66.90;;;19.31;48.44;97187.09;5022962;28;20045;-40
2023/07/01 01:33:43;;;;;;;3.22;2.55;;;17.60;67.00;;;19.26;48.77;97193.19;5029084;28;20507;-41
2023/07/01 01:36:32;;;;;;;3.08;2.72;;;17.60;67.80;;;19.20;48.98;97192.22;5030894;28;20050;-39
2023/07/01 01:39:05;;;;;;;2.33;2.13;;;17.50;68.60;;;19.14;49.33;97192.31;5029675;28;20041;-40
2023/07/01 01:41:38;;;;;;;4.73;2.30;;;17.40;69.50;;;19.01;49.84;97191.41;5031445;28;20390;-40
2023/07/01 01:44:13;;;;;;;3.53;3.22;;;17.30;70.70;;;18.98;50.03;97182.94;5021560;28;20398;-40
2023/07/01 01:46:43;;;;;;;4.18;2.25;;;17.20;71.00;;;18.89;50.28;97180.53;5014279;28;20052;-41
2023/07/01 01:49:12;;;;;;;3.65;2.75;;;17.20;71.00;;;18.84;50.42;97184.97;5029047;28;20065;-39
2023/07/01 01:51:41;;;;;;;2.78;2.08;;;17.30;70.90;;;18.77;50.92;97186.91;5028767;28;20057;-39
2023/07/01 01:54:12;;;;;;;3.67;2.60;;;17.20;71.40;;;18.67;51.08;97184.72;5029060;28;20077;-39
2023/07/01 01:56:41;;;;;;;3.13;2.22;;;17.10;71.90;;;18.67;51.21;97185.53;5012805;28;20504;-40
2023/07/01 01:59:09;;;;;;;3.10;2.28;;;17.10;72.20;;;18.63;51.19;97180.81;5012718;28;20060;-40
2023/07/01 02:01:37;;;;;;;5.18;2.40;;;17.10;72.20;;;18.64;51.37;97177.91;5021519;28;20555;-39
2023/07/01 02:04:05;;;;;;;3.17;2.28;;;17.10;72.20;;;18.69;51.21;97175.34;5030624;28;20056;-42
2023/07/01 02:06:34;;;;;;;4.80;2.80;;;17.10;71.70;;;18.69;51.16;97175.34;5030856;28;20060;-39
2023/07/01 02:09:04;;;;;;;2.90;2.08;;;17.20;71.60;;;18.68;51.19;97168.31;5028535;28;20045;-39
2023/07/01 02:11:32;;;;;;;3.47;2.38;;;17.20;71.50;;;18.63;51.28;97168.19;5031140;28;20528;-52
2023/07/01 02:14:00;;;;;;;4.80;2.30;;;17.10;71.90;;;18.65;51.29;97170.63;5028994;28;20508;-52
2023/07/01 02:16:28;;;;;;;3.95;2.60;;;17.00;72.00;;;18.59;51.34;97175.06;5029812;28;20049;-53
2023/07/01 02:18:56;;;;;;;3.30;2.33;;;16.90;72.30;;;18.55;51.46;97170.31;5028583;28;20045;-55
2023/07/01 02:21:24;;;;;;;3.35;2.45;;;16.90;72.90;;;18.47;51.66;97174.13;5029325;28;20424;-54
2023/07/01 02:23:51;;;;;;;4.05;2.63;;;16.80;73.30;;;18.46;51.57;97167.13;5028854;28;20365;-52
2023/07/01 02:26:19;;;;;;;4.55;2.30;;;16.80;73.40;;;18.46;51.72;97162.53;5029565;28;20504;-53
2023/07/01 02:28:46;;;;;;;5.63;2.53;;;16.80;73.40;;;18.44;51.80;97170.03;5030077;28;20050;-53
2023/07/01 02:31:17;;;;;;;3.47;2.67;;;16.80;73.40;;;18.40;51.95;97170.72;5029029;28;22403;-52
2023/07/01 02:33:45;;;;;;;4.28;2.50;;;16.70;73.50;;;18.38;52.07;97168.22;5029583;28;20071;-53
2023/07/01 02:36:13;;;;;;;4.50;2.40;;;16.80;73.50;;;18.38;52.02;97160.16;5029091;28;20050;-53
2023/07/01 02:38:41;;;;;;;3.00;2.40;;;16.80;73.00;;;18.33;52.15;97161.84;5030181;28;20045;-54
2023/07/01 02:41:08;;;;;;;3.15;2.30;;;16.80;72.90;;;18.34;52.13;97164.34;5030144;28;20045;-50
2023/07/01 02:43:36;;;;;;;3.60;2.80;;;16.80;72.90;;;18.34;52.12;97164.34;5030144;28;20037;-53
2023/07/01 02:46:03;;;;;;;2.97;2.20;;;16.80;73.00;;;18.30;52.23;97163.13;5033535;28;20049;-51
2023/07/01 02:48:31;;;;;;;3.95;2.75;;;16.80;72.90;;;18.29;52.19;97167.69;5033651;28;20044;-53
2023/07/01 02:50:59;;;;;;;4.35;2.38;;;16.80;73.00;;;18.30;51.97;97163.94;5032700;28;20044;-54
2023/07/01 02:53:26;;;;;;;3.75;2.20;;;16.70;73.10;;;18.31;52.26;97167.47;5032611;28;20041;-53
2023/07/01 02:55:55;;;;;;;9.98;3.95;;;16.70;73.30;;;18.32;52.11;97168.28;5032583;28;20052;-54
2023/07/01 02:58:23;;;;;;;2.38;2.00;;;16.70;73.30;;;18.27;52.13;97159.00;5032252;28;20049;-51
2023/07/01 03:00:50;;;;;;;4.53;2.80;;;16.60;73.40;;;18.26;52.15;97160.06;5033294;28;20046;-54
2023/07/01 03:03:18;;;;;;;3.88;2.53;;;16.60;73.30;;;18.25;52.14;97162.97;5032285;28;20061;-54
2023/07/01 03:05:46;;;;;;;3.15;2.10;;;16.60;73.20;;;18.21;52.28;97154.50;5033575;28;20041;-54
2023/07/01 03:08:13;;;;;;;5.55;2.30;;;16.60;73.10;;;18.19;52.35;97161.16;5032910;28;20060;-53
2023/07/01 03:10:41;;;;;;;3.60;2.50;;;16.60;73.40;;;18.15;52.34;97152.69;5033392;28;20054;-54
2023/07/01 03:13:09;;;;;;;3.97;2.53;;;16.60;73.50;;;18.16;52.32;97159.72;5033428;28;20052;-51
2023/07/01 03:15:36;;;;;;;2.97;2.17;;;16.60;73.20;;;18.15;52.32;97165.34;5032233;28;20054;-52
2023/07/01 03:18:04;;;;;;;4.00;2.42;;;16.60;73.20;;;18.13;52.26;97159.34;5031667;28;20045;-55
2023/07/01 03:20:31;;;;;;;3.50;2.40;;;16.60;72.70;;;18.13;52.26;97170.94;5031529;28;20052;-53
2023/07/01 03:22:59;;;;;;;3.03;2.55;;;16.60;72.90;;;18.07;52.40;97164.56;5032556;28;20121;-55
2023/07/01 03:25:28;;;;;;;2.80;2.22;;;16.60;73.10;;;17.97;52.60;97166.94;5032055;28;20041;-53
2023/07/01 03:27:55;;;;;;;4.40;2.63;;;16.40;73.60;;;18.01;52.48;97167.31;5032934;28;20045;-54
2023/07/01 03:30:30;;;;;;;2.88;2.15;;;16.40;73.50;;;18.01;52.59;97172.69;5031814;28;20042;-51
2023/07/01 03:32:58;;;;;;;3.38;2.25;;;16.40;73.60;;;18.03;52.54;97163.38;5031839;28;20060;-53
2023/07/01 03:35:26;;;;;;;5.80;2.55;;;16.50;73.20;;;18.04;52.45;97165.00;5025368;28;20117;-54
2023/07/01 03:37:54;;;;;;;3.75;2.67;;;16.50;73.00;;;18.03;52.39;97160.69;5032920;28;20604;-54
2023/07/01 03:40:22;;;;;;;2.45;2.10;;;16.50;72.70;;;17.97;52.38;97163.41;5032583;28;20053;-53
2023/07/01 03:42:49;;;;;;;3.25;2.33;;;16.40;73.00;;;18.00;52.44;97157.59;5032994;28;20037;-55
2023/07/01 03:45:17;;;;;;;4.25;2.88;;;16.40;73.00;;;17.95;52.47;97160.97;5032829;28;20042;-54
2023/07/01 03:47:45;;;;;;;3.25;2.20;;;16.40;73.20;;;17.97;52.41;97160.72;5032395;28;20048;-54
2023/07/01 03:50:14;;;;;;;5.05;2.33;;;16.40;73.10;;;17.99;52.35;97167.56;5031767;28;20045;-53
2023/07/01 03:52:42;;;;;;;3.95;2.28;;;16.40;72.90;;;17.97;52.52;97163.41;5032617;28;20057;-55
2023/07/01 03:55:14;;;;;;;3.38;2.65;;;16.40;72.90;;;17.95;52.54;97165.50;5032393;28;20049;-54
2023/07/01 03:57:41;;;;;;;4.88;2.80;;;16.40;73.00;;;17.95;52.55;97166.34;5032934;28;20048;-55
2023/07/01 04:00:17;;;;;;;4.15;2.17;;;16.40;72.90;;;17.96;52.52;97162.59;5032445;28;20524;-55
2023/07/01 04:02:50;;;;;;;4.50;2.60;;;16.40;72.80;;;17.96;52.42;97159.91;5032827;28;20045;-54
2023/07/01 04:05:19;;;;;;;3.23;2.57;;;16.40;72.90;;;17.95;52.46;97163.66;5032593;28;20412;-54
2023/07/01 04:07:48;;;;;;;5.85;2.50;;;16.40;73.00;;;17.97;52.51;97161.56;5032383;28;20041;-54
2023/07/01 04:10:16;;;;;;;3.30;2.22;;;16.50;72.60;;;17.99;52.51;97158.63;5030879;28;20068;-54
2023/07/01 04:12:44;;;;;;;4.90;2.63;;;16.50;72.50;;;17.99;52.38;97162.16;5032374;28;20048;-57
2023/07/01 04:15:12;;;;;;;6.50;2.58;;;16.50;72.20;;;18.00;52.36;97166.50;5032488;28;20413;-53
2023/07/01 04:17:48;;;;;;;3.55;2.40;;;16.50;72.20;;;18.00;52.22;97166.50;5032421;28;20064;-54
2023/07/01 04:20:17;;;;;;;5.82;2.60;;;16.50;72.00;;;18.00;52.12;97168.38;5032199;28;20060;-53
2023/07/01 04:22:47;;;;;;;3.85;2.42;;;16.50;71.70;;;18.04;52.12;97169.56;5032154;28;20049;-52
2023/07/01 04:25:15;;;;;;;4.00;2.00;;;16.60;71.40;;;18.06;51.95;97167.47;5031918;28;20045;-54
2023/07/01 04:27:43;;;;;;;3.75;2.20;;;16.60;71.20;;;18.07;51.92;97172.66;5031946;28;20539;-54
2023/07/01 04:30:13;;;;;;;3.85;2.58;;;16.60;70.80;;;18.09;51.80;97158.97;5031445;28;20042;-53
2023/07/01 04:32:41;;;;;;;3.15;2.22;;;16.60;70.50;;;18.11;51.40;97164.97;5032214;28;20093;-50
2023/07/01 04:35:09;;;;;;;5.00;2.35;;;16.60;69.90;;;18.08;51.36;97162.69;5031851;28;20049;-53
2023/07/01 04:37:36;;;;;;;3.22;2.20;;;16.60;69.70;;;18.13;51.25;97160.19;5032055;28;20416;-53
2023/07/01 04:40:05;;;;;;;3.50;2.55;;;16.60;69.50;;;18.14;50.93;97158.28;5031585;28;20048;-54
2023/07/01 04:42:34;;;;;;;4.53;2.38;;;16.60;68.70;;;18.13;50.86;97160.19;5024071;28;20041;-54
2023/07/01 04:45:05;;;;;;;3.67;2.40;;;16.60;68.30;;;18.17;50.79;97153.28;5032226;28;20045;-53
2023/07/01 04:47:33;;;;;;;4.72;2.10;;;16.70;68.60;;;18.20;50.72;97158.22;5023799;28;20044;-52
2023/07/01 04:50:01;;;;;;;3.10;2.38;;;16.80;68.30;;;18.25;50.59;97153.00;5030658;28;20417;-55
2023/07/01 04:52:28;;;;;;;4.45;2.42;;;16.80;67.90;;;18.28;50.26;97151.72;5031430;28;20050;-55
2023/07/01 04:54:56;;;;;;;2.95;2.30;;;16.90;66.80;;;18.32;50.18;97146.72;5031963;28;20060;-53
2023/07/01 04:57:23;;;;;;;3.70;1.90;;;17.00;67.20;;;18.35;50.10;97147.09;5032008;28;20049;-52
2023/07/01 04:59:51;;;;;;;6.07;2.42;;;17.00;66.80;;;18.39;50.03;97147.47;5031097;28;20049;-53
2023/07/01 05:02:19;;;;;;;4.82;2.15;;;17.00;66.30;;;18.41;49.90;97153.47;5031557;28;20108;-53
2023/07/01 05:04:46;;;;;;;2.53;2.33;;;17.20;65.90;;;18.42;49.83;97157.84;5032226;28;20045;-54
2023/07/01 05:07:15;;;;;;;2.90;2.05;;;17.10;65.80;;;18.44;49.87;97156.56;5030734;28;20052;-52
2023/07/01 05:09:42;;;;;;;4.10;2.50;;;17.10;65.80;;;18.47;49.82;97158.78;5030394;28;20048;-53
2023/07/01 05:12:10;;;;;;;4.80;2.10;;;17.10;65.40;;;18.44;49.67;97161.13;5031861;28;20056;-53
2023/07/01 05:14:38;;;;;;;3.42;3.00;;;17.00;65.90;;;18.49;49.82;97161.25;5031709;28;20525;-52
2023/07/01 05:17:05;;;;;;;4.13;2.10;;;17.10;66.00;;;18.52;49.66;97162.72;5031536;28;20416;-54
2023/07/01 05:19:33;;;;;;;4.18;2.20;;;17.20;65.90;;;18.57;49.57;97157.44;5031627;28;20396;-53
2023/07/01 05:22:00;;;;;;;3.33;2.00;;;17.20;65.60;;;18.59;49.53;97155.34;5013755;28;20056;-53
2023/07/01 05:24:28;;;;;;;4.43;2.58;;;17.30;65.90;;;18.63;49.43;97153.84;5031159;28;20104;-55
2023/07/01 05:26:56;;;;;;;7.18;2.60;;;17.30;65.50;;;18.65;49.25;97152.59;5032145;28;20045;-39
2023/07/01 05:29:25;;;;;;;4.22;2.38;;;17.30;65.10;;;18.66;49.10;97154.22;5030653;28;20041;-39
2023/07/01 05:31:52;;;;;;;4.13;2.22;;;17.30;65.00;;;18.69;49.06;97139.50;5030719;28;20516;-41
2023/07/01 05:34:20;;;;;;;3.83;2.08;;;17.40;64.60;;;18.72;48.98;97152.50;5031013;28;20070;-39
2023/07/01 05:36:48;;;;;;;4.80;2.53;;;17.40;64.30;;;18.76;49.08;97148.31;5029783;28;20049;-39
2023/07/01 05:39:17;;;;;;;2.58;1.92;;;17.40;64.40;;;18.82;49.18;97149.31;5030498;28;20049;-40
2023/07/01 05:41:45;;;;;;;4.10;2.00;;;17.50;64.50;;;18.78;48.84;97146.22;5030913;28;20045;-39
2023/07/01 05:44:13;;;;;;;2.95;1.70;;;17.50;64.00;;;18.84;48.95;97145.38;5030807;28;20401;-39
2023/07/01 05:46:41;;;;;;;3.50;2.00;;;17.60;64.00;;;18.93;49.02;97142.34;5031012;28;20037;-40
2023/07/01 05:49:09;;;;;;;3.15;2.78;;;17.70;64.10;;;18.94;48.62;97136.75;5030686;28;20045;-42
2023/07/01 05:51:37;;;;;;;2.88;1.65;;;17.60;63.50;;;18.98;48.54;97140.63;5030082;28;20044;-40
2023/07/01 05:54:05;;;;;;;3.95;1.90;;;17.70;63.50;;;19.04;48.60;97147.00;5029537;28;20044;-39
2023/07/01 05:56:33;;;;;;;4.00;2.05;;;17.70;63.50;;;19.06;48.68;97147.56;5030791;28;20060;-39
2023/07/01 05:59:00;;;;;;;4.40;2.05;;;17.80;63.40;;;19.14;48.55;97149.97;5030323;28;20049;-39
2023/07/01 06:01:29;;;;;;;4.20;2.13;;;17.80;63.60;;;19.19;48.39;97146.56;5030576;28;20045;-39
2023/07/01 06:03:57;;;;;;;4.13;2.30;;;17.90;63.30;;;19.24;48.65;97142.13;5030559;28;20041;-40
2023/07/01 06:06:24;;;;;;;3.45;2.42;;;17.90;63.60;;;19.28;48.38;97143.31;5029203;28;20064;-40
2023/07/01 06:08:52;;;;;;;3.83;2.28;;;17.90;63.40;;;19.30;48.12;97143.09;5030475;28;20041;-41
2023/07/01 06:11:19;;;;;;;3.17;2.42;;;17.90;62.50;;;19.32;47.85;97142.88;5030626;28;20046;-41
2023/07/01 06:13:50;;;;;;;5.65;2.05;;;18.00;62.20;;;19.37;47.59;97146.53;5030606;28;20436;-40
2023/07/01 06:16:18;;;;;;;5.45;2.28;;;18.10;62.60;;;19.40;47.35;97156.84;5030719;28;20053;-43
2023/07/01 06:18:45;;;;;;;3.33;2.30;;;18.10;61.20;;;19.47;47.04;97149.47;5031696;28;20052;-40
2023/07/01 06:21:13;;;;;;;5.47;2.10;;;18.30;60.10;;;19.48;46.32;97142.19;5034337;28;20042;-41
2023/07/01 06:23:41;;;;;;;2.92;2.13;;;18.30;59.30;;;19.53;46.02;97149.63;5033808;28;20053;-42
2023/07/01 06:26:08;;;;;;;5.00;2.47;;;18.30;58.30;;;19.48;46.12;97147.59;5034204;28;20416;-40
2023/07/01 06:28:36;;;;;;;2.55;1.90;;;18.30;58.90;;;19.52;46.14;97142.56;5033958;28;20511;-40
2023/07/01 06:31:04;;;;;;;6.70;2.08;;;18.40;58.70;;;19.62;46.06;97137.47;5034001;28;20042;-39
2023/07/01 06:33:38;;;;;;;3.85;2.53;;;18.50;58.80;;;19.66;45.77;97146.72;5033870;28;20057;-42
2023/07/01 06:36:07;;;;;;;3.85;2.15;;;18.50;57.70;;;19.67;45.30;97143.78;5034000;28;20049;-40
2023/07/01 06:38:34;;;;;;;5.20;2.05;;;18.60;55.40;;;19.74;45.07;97145.59;5033512;28;20421;-40
2023/07/01 06:41:02;;;;;;;4.93;2.88;;;18.60;56.40;;;19.77;45.26;97137.84;5033987;28;20048;-40
2023/07/01 06:43:30;;;;;;;4.63;2.20;;;18.70;56.30;;;19.84;44.68;97138.56;5033748;28;20421;-42
2023/07/01 06:45:59;;;;;;;3.35;1.83;;;18.70;56.20;;;19.84;44.29;97130.47;5033838;28;20045;-40
2023/07/01 06:48:27;;;;;;;4.30;2.17;;;18.80;55.50;;;19.95;44.05;97133.41;5033419;28;20041;-45
2023/07/01 06:50:54;;;;;;;5.15;2.08;;;18.90;53.80;;;20.01;43.56;97129.78;5032847;28;20037;-39
2023/07/01 06:53:22;;;;;;;3.50;2.45;;;19.00;53.70;;;20.11;43.90;97129.22;5033855;28;20054;-40
2023/07/01 06:55:50;;;;;;;5.07;2.92;;;19.20;54.60;;;20.22;43.10;97131.06;5033473;28;20050;-42
2023/07/01 06:58:17;;;;;;;3.25;2.25;;;19.30;53.80;;;20.30;43.39;97129.88;5034253;28;20056;-42
2023/07/01 07:00:45;;;;;;;2.75;2.05;;;19.40;53.50;;;20.37;43.23;97122.47;5025361;28;20045;-45
2023/07/01 07:03:13;;;;;;;3.55;1.63;;;19.50;53.30;;;20.45;43.08;97122.97;5033292;28;20042;-42
2023/07/01 07:05:41;;;;;;;5.95;2.10;;;19.60;53.30;;;20.58;42.94;97124.56;5033959;28;20064;-45
2023/07/01 07:08:08;;;;;;;4.13;2.13;;;19.60;53.50;;;20.65;42.86;97121.78;5033166;28;20467;-41
2023/07/01 07:10:36;;;;;;;4.13;2.40;;;19.70;52.80;;;20.57;42.06;97122.94;5032986;28;20057;-42
2023/07/01 07:13:03;;;;;;;3.55;2.25;;;19.70;51.20;;;20.69;42.00;97119.44;5033774;28;20049;-42
2023/07/01 07:15:31;;;;;;;4.82;2.05;;;19.70;50.20;;;20.54;41.43;97126.09;5033288;28;20049;-42
2023/07/01 07:18:00;;;;;;;4.10;2.20;;;19.70;51.20;;;20.57;41.52;97119.38;5032009;28;20050;-54
2023/07/01 07:20:28;;;;;;;3.70;1.60;;;19.70;50.70;;;20.67;41.45;97118.84;5032963;28;20057;-53
2023/07/01 07:22:55;;;;;;;4.68;2.20;;;19.80;50.40;;;20.81;41.45;97118.31;5033307;28;20049;-56
2023/07/01 07:25:23;;;;;;;5.70;2.13;;;19.90;51.40;;;20.81;41.29;97121.03;5032895;28;20053;-55
2023/07/01 07:27:51;;;;;;;2.95;1.70;;;19.90;50.70;;;20.75;40.65;97107.66;5033216;28;20042;-47
2023/07/01 07:30:19;;;;;;;5.38;1.77;;;19.80;50.20;;;20.93;41.19;97107.47;5031946;28;20115;-44
2023/07/01 07:32:46;;;;;;;4.07;1.90;;;19.90;50.70;;;21.02;40.01;97106.03;5032578;28;20041;-44
2023/07/01 07:35:14;;;;;;;4.55;1.88;;;20.10;49.60;;;21.05;40.85;97102.00;5032851;28;20416;-45
2023/07/01 07:37:42;;;;;;;2.50;2.10;;;20.10;50.00;;;21.12;40.79;97101.88;5033185;28;20057;-41
2023/07/01 07:40:10;;;;;;;4.43;2.30;;;20.20;49.80;;;21.18;40.42;97099.00;5031704;28;20052;-42
2023/07/01 07:42:41;;;;;;;6.13;2.00;;;20.20;48.50;;;21.19;40.60;97097.09;5032625;28;20041;-43
2023/07/01 07:45:09;;;;;;;2.53;1.83;;;20.20;49.70;;;21.22;40.11;97094.75;5032843;28;20052;-45
2023/07/01 07:47:37;;;;;;;2.42;1.75;;;20.20;49.00;;;21.29;40.61;97093.81;5032248;28;20048;-45
2023/07/01 07:50:05;;;;;;;5.82;1.83;;;20.20;49.50;;;21.34;40.55;97093.88;5032299;28;20044;-43
2023/07/01 07:52:33;;;;;;;2.83;1.77;;;20.30;50.00;;;21.34;40.42;97091.16;5032709;28;20045;-42
2023/07/01 07:55:01;;;;;;;2.53;1.83;;;20.30;50.30;;;21.33;40.49;97094.94;5032507;28;20049;-45
2023/07/01 07:57:29;;;;;;;6.10;2.85;;;20.30;50.60;;;21.42;40.98;97094.31;5032377;28;20046;-42
2023/07/01 07:59:56;;;;;;;2.80;1.73;;;20.30;50.80;;;21.49;40.95;97090.66;5032214;28;20049;-43
2023/07/01 08:02:24;;;;;;;4.38;3.05;;;20.40;50.40;;;21.49;40.76;97093.34;5032324;28;20041;-44
2023/07/01 08:04:51;;;;;;;5.22;1.90;;;20.40;49.70;;;21.42;40.59;97083.47;5032564;28;20037;-43
2023/07/01 08:07:19;;;;;;;3.38;2.25;;;20.40;50.30;;;21.46;40.56;97091.97;5032108;28;20052;-42
2023/07/01 08:09:47;;;;;;;2.47;1.88;;;20.40;50.50;;;21.45;40.42;97079.47;5047149;28;20113;-42
2023/07/01 08:12:15;;;;;;;3.70;1.90;;;20.40;49.70;;;21.47;40.59;97090.06;5032254;28;20052;-44
2023/07/01 08:14:42;;;;;;;3.00;2.15;;;20.40;49.80;;;21.41;40.65;97075.59;5031840;28;20490;-43
2023/07/01 08:17:10;;;;;;;3.53;1.92;;;20.40;49.80;;;21.50;40.58;97090.41;5032319;28;20416;-44
2023/07/01 08:19:37;;;;;;;2.45;1.65;;;20.40;50.40;;;21.54;40.17;97075.31;5031584;28;20068;-43
2023/07/01 08:22:05;;;;;;;2.65;1.83;;;20.50;49.40;;;21.51;39.61;97080.41;5032158;28;20493;-41
2023/07/01 08:24:32;;;;;;;3.90;2.22;;;20.50;48.30;;;21.56;39.86;97064.25;5032111;28;20072;-42
2023/07/01 08:27:00;;;;;;;2.85;2.25;;;20.50;49.00;;;21.64;40.08;97063.81;5032036;28;20048;-42
2023/07/01 08:29:28;;;;;;;2.30;2.00;;;20.60;49.10;;;21.73;39.83;97075.91;5030349;28;20049;-47
2023/07/01 08:31:55;;;;;;;4.38;2.25;;;20.70;49.30;;;21.72;39.86;97071.53;5031995;28;20041;-42
2023/07/01 08:34:23;;;;;;;6.68;2.22;;;20.70;48.50;;;21.81;39.97;97061.13;5030925;28;20068;-43
2023/07/01 08:36:50;;;;;;;3.08;2.25;;;20.80;49.00;;;21.86;39.95;97065.78;5030552;28;20041;-44
2023/07/01 08:39:18;;;;;;;3.47;2.10;;;20.90;48.90;;;21.90;40.00;97067.75;5030231;28;20395;-41
2023/07/01 08:41:56;;;;;;;4.07;2.28;;;20.90;48.90;;;22.02;39.44;97064.94;5031663;28;20053;-41
2023/07/01 08:44:25;;;;;;;5.82;2.40;;;21.10;47.80;;;21.94;39.32;97074.31;5030770;28;20436;-41
2023/07/01 08:46:54;;;;;;;3.88;2.20;;;21.10;47.30;;;21.95;39.14;97062.41;5031623;28;20041;-41
2023/07/01 08:49:23;;;;;;;3.58;2.17;;;21.10;47.70;;;22.02;39.06;97048.66;5029667;28;20500;-42
2023/07/01 08:52:06;;;;;;;3.50;2.45;;;21.20;47.70;;;22.03;39.17;97043.00;5031305;28;20068;-41
2023/07/01 08:54:34;;;;;;;3.40;2.00;;;21.10;47.00;;;22.08;39.08;97049.56;5030385;28;20045;-41
2023/07/01 08:57:02;;;;;;;2.50;2.00;;;21.20;46.80;;;22.08;38.54;97044.16;5030134;28;20045;-40
2023/07/01 08:59:30;;;;;;;5.25;2.22;;;21.20;46.30;;;22.19;38.91;97043.22;5030875;28;20068;-41
2023/07/01 09:01:59;;;;;;;3.00;1.90;;;21.30;47.40;;;22.27;39.09;97042.81;5031254;28;20041;-42
2023/07/01 09:04:27;;;;;;;3.88;2.42;;;21.40;47.50;;;22.34;38.50;97045.34;5030157;28;20042;-45
2023/07/01 09:06:55;;;;;;;3.17;2.53;;;21.40;46.80;;;22.29;38.49;97035.25;5031258;28;20672;-43
2023/07/01 09:09:24;;;;;;;4.55;3.17;;;21.40;45.70;;;22.34;38.32;97032.63;5031083;28;20071;-42
2023/07/01 09:11:52;;;;;;;4.97;2.13;;;21.40;46.30;;;22.39;38.64;97042.69;5031299;28;20049;-42
2023/07/01 09:14:20;;;;;;;2.67;2.08;;;21.40;46.80;;;22.19;37.16;97043.22;5031092;28;20061;-40
2023/07/01 09:16:47;;;;;;;2.35;2.08;;;21.30;44.20;;;22.26;37.60;97026.81;5031046;28;20515;-43
2023/07/01 09:19:16;;;;;;;4.05;2.17;;;21.30;44.80;;;22.20;37.54;97034.03;5031025;28;20049;-41
2023/07/01 09:21:44;;;;;;;6.07;2.13;;;21.20;44.90;;;22.25;37.26;97027.88;5030056;28;20045;-40
2023/07/01 09:24:12;;;;;;;3.95;2.58;;;21.30;45.30;;;22.35;38.08;97023.41;5031367;28;20041;-43
2023/07/01 09:26:40;;;;;;;6.07;3.05;;;21.40;46.20;;;22.45;37.68;97033.56;5031630;28;20049;-41
2023/07/01 09:29:16;;;;;;;2.80;2.35;;;21.40;45.90;;;22.47;37.63;97020.59;5030473;28;20759;-41
2023/07/01 09:31:49;;;;;;;2.50;2.17;;;21.50;44.70;;;22.50;37.47;97014.63;5031839;28;20041;-41
2023/07/01 09:34:18;;;;;;;2.85;2.28;;;21.50;45.30;;;22.57;37.94;97020.69;5031330;28;20060;-44
2023/07/01 09:36:46;;;;;;;2.80;2.17;;;21.60;46.00;;;22.68;37.95;97013.50;5030984;28;20056;-43
2023/07/01 09:39:14;;;;;;;4.03;2.47;;;21.70;46.10;;;22.77;37.13;97014.66;5030506;28;20052;-41
2023/07/01 09:41:41;;;;;;;2.80;2.25;;;21.80;44.90;;;22.90;37.53;97004.50;5029638;28;20077;-44
2023/07/01 09:44:18;;;;;;;3.05;2.47;;;21.90;45.60;;;23.07;36.90;97002.53;5030917;28;20516;-41
2023/07/01 09:46:47;;;;;;;4.53;2.80;;;22.10;44.00;;;23.17;36.96;97004.53;5031189;28;20053;-45
2023/07/01 09:49:14;;;;;;;3.00;2.30;;;22.20;44.20;;;23.22;36.11;97009.16;5029311;28;20045;-41
2023/07/01 09:51:50;;;;;;;3.80;2.80;;;22.40;42.50;;;23.23;36.33;96995.34;5029940;28;20517;-41
2023/07/01 09:54:29;;;;;;;4.15;2.67;;;22.40;42.20;;;23.24;35.94;96993.44;5033597;28;20422;-44
2023/07/01 09:56:59;;;;;;;3.72;2.28;;;22.40;40.90;;;23.27;35.36;96982.06;5035364;28;20037;-40
2023/07/01 09:59:27;;;;;;;3.08;2.72;;;22.30;41.70;;;23.34;35.87;96983.50;5034396;28;20048;-44
2023/07/01 10:01:57;;;;;;;4.65;2.42;;;22.40;42.80;;;23.41;35.41;96980.53;5034803;28;20431;-43
2023/07/01 10:04:28;;;;;;;4.05;2.40;;;22.50;41.80;;;23.50;35.32;96983.63;5034857;28;20500;-43
2023/07/01 10:06:56;;;;;;;5.60;2.47;;;22.60;41.30;;;23.46;34.85;96975.16;5034545;28;20052;-41
2023/07/01 10:09:26;;;;;;;3.67;2.92;;;22.50;41.20;;;23.53;34.46;96964.88;5034326;28;20042;-41
2023/07/01 10:11:58;;;;;;;3.80;2.63;;;22.70;40.60;;;23.62;34.36;96964.41;5034332;28;20050;-42
2023/07/01 10:14:31;;;;;;;3.50;2.83;;;22.70;40.40;;;23.67;34.49;96962.56;5033600;28;20045;-46
2023/07/01 10:16:59;;;;;;;5.82;2.78;;;22.80;39.60;;;23.75;34.69;96969.38;5033377;28;20420;-47
2023/07/01 10:19:30;;;;;;;4.32;2.70;;;22.80;40.80;;;23.85;34.61;96974.09;5034619;28;20496;-41
2023/07/01 10:22:31;;;;;;;2.80;2.30;;;23.00;40.50;;;23.78;32.99;96960.72;5034432;28;20304;-44
2023/07/01 10:25:05;;;;;;;4.53;3.00;;;22.90;37.20;;;23.83;32.52;96960.78;5034495;28;20148;-42
2023/07/01 10:27:42;;;;;;;5.30;3.38;;;23.00;37.80;;;23.85;32.17;96958.59;5034007;28;20068;-48